createdAt,value
2022-08-09T00:00:59.330Z,99.90
2022-08-09T00:04:03.692Z,99.90
2022-08-09T00:06:22.771Z,99.90
2022-08-09T00:08:52.281Z,99.90
2022-08-09T00:11:55.038Z,99.90
2022-08-09T00:14:19.982Z,99.90
2022-08-09T00:16:57.035Z,99.90
2022-08-09T00:19:27.782Z,99.90
2022-08-09T00:21:57.163Z,99.90
2022-08-09T00:24:27.215Z,99.90
2022-08-09T00:26:57.272Z,99.90
2022-08-09T00:30:10.236Z,99.90
2022-08-09T00:32:14.218Z,99.90
2022-08-09T00:35:04.192Z,99.90
2022-08-09T00:37:32.730Z,99.90
2022-08-09T00:40:13.770Z,99.90
2022-08-09T00:44:14.338Z,99.90
2022-08-09T00:45:35.118Z,99.90
2022-08-09T00:48:03.796Z,99.90
2022-08-09T00:50:33.584Z,99.90
2022-08-09T00:53:10.206Z,99.90
2022-08-09T00:56:04.121Z,99.90
2022-08-09T00:58:27.905Z,99.90
2022-08-09T01:00:59.683Z,99.90
2022-08-09T01:03:40.728Z,99.90
2022-08-09T01:06:22.045Z,99.90
2022-08-09T01:09:02.585Z,99.90
2022-08-09T01:11:53.067Z,99.90
2022-08-09T01:14:30.270Z,99.90
2022-08-09T01:17:05.478Z,99.90
2022-08-09T01:19:57.067Z,99.90
2022-08-09T01:24:00.503Z,99.90
2022-08-09T01:26:17.757Z,99.90
2022-08-09T01:28:51.586Z,99.90
2022-08-09T01:32:32.552Z,99.90
2022-08-09T01:34:18.011Z,99.90
2022-08-09T01:36:47.831Z,99.90
2022-08-09T01:39:17.834Z,99.90
2022-08-09T01:41:53.489Z,99.90
2022-08-09T01:44:30.988Z,99.90
2022-08-09T01:47:01.819Z,99.90
2022-08-09T01:49:39.037Z,99.90
2022-08-09T01:52:14.721Z,99.90
2022-08-09T01:54:48.510Z,99.90
2022-08-09T01:57:20.652Z,99.90
2022-08-09T01:59:59.972Z,99.90
2022-08-09T02:02:33.016Z,99.90
2022-08-09T02:05:15.168Z,99.90
2022-08-09T02:08:39.387Z,99.90
2022-08-09T02:10:42.843Z,99.90
2022-08-09T02:13:21.884Z,99.90
2022-08-09T02:15:53.624Z,99.90
2022-08-09T02:18:28.450Z,99.90
2022-08-09T02:21:00.451Z,99.90
2022-08-09T02:23:40.086Z,99.90
2022-08-09T02:26:25.272Z,99.90
2022-08-09T02:28:59.601Z,99.90
2022-08-09T02:31:36.387Z,99.90
2022-08-09T02:34:13.193Z,99.90
2022-08-09T02:36:44.278Z,99.90
2022-08-09T02:39:19.949Z,99.90
2022-08-09T02:42:04.952Z,99.90
2022-08-09T02:44:38.298Z,99.90
2022-08-09T02:47:12.442Z,99.90
2022-08-09T02:49:44.354Z,99.90
2022-08-09T02:52:18.452Z,99.90
2022-08-09T02:54:53.918Z,99.90
2022-08-09T02:57:25.266Z,99.90
2022-08-09T03:00:21.298Z,99.90
2022-08-09T03:03:00.506Z,99.90
2022-08-09T03:05:34.133Z,99.90
2022-08-09T03:08:06.212Z,99.90
2022-08-09T03:10:36.384Z,99.90
2022-08-09T03:13:08.626Z,99.90
2022-08-09T03:16:04.131Z,99.90
2022-08-09T03:18:30.628Z,99.90
2022-08-09T03:21:02.885Z,99.90
2022-08-09T03:23:31.807Z,99.90
2022-08-09T03:26:03.644Z,99.90
2022-08-09T03:28:36.198Z,99.90
2022-08-09T03:31:21.107Z,99.90
2022-08-09T03:33:54.747Z,99.90
2022-08-09T03:36:27.025Z,99.90
2022-08-09T03:38:57.622Z,99.90
2022-08-09T03:41:29.751Z,99.90
2022-08-09T03:46:46.418Z,99.90
2022-08-09T03:49:19.234Z,99.90
2022-08-09T03:51:58.324Z,99.90
2022-08-09T03:54:34.661Z,99.90
2022-08-09T03:57:18.038Z,99.90
2022-08-09T03:59:53.610Z,99.90
2022-08-09T04:02:27.885Z,99.90
2022-08-09T04:05:00.676Z,99.90
2022-08-09T04:07:47.045Z,99.90
2022-08-09T04:10:20.752Z,99.90
2022-08-09T04:12:56.893Z,99.90
2022-08-09T04:15:42.621Z,99.90
2022-08-09T04:18:16.501Z,99.90
2022-08-09T04:20:48.161Z,99.90
2022-08-09T04:23:17.884Z,99.90
2022-08-09T04:25:53.071Z,99.90
2022-08-09T04:28:33.570Z,99.90
2022-08-09T04:31:10.108Z,99.90
2022-08-09T04:33:52.182Z,99.90
2022-08-09T04:36:24.070Z,99.90
2022-08-09T04:38:53.049Z,99.90
2022-08-09T04:41:23.955Z,99.90
2022-08-09T04:44:06.916Z,99.90
2022-08-09T04:46:58.454Z,99.90
2022-08-09T04:49:53.264Z,99.90
2022-08-09T04:52:26.698Z,99.90
2022-08-09T04:55:04.766Z,99.90
2022-08-09T04:57:53.949Z,99.90
2022-08-09T05:00:31.640Z,99.90
2022-08-09T05:03:39.874Z,99.90
2022-08-09T05:06:07.134Z,99.90
2022-08-09T05:08:37.587Z,99.90
2022-08-09T05:11:07.730Z,99.90
2022-08-09T05:13:38.690Z,99.90
2022-08-09T05:16:08.224Z,99.90
2022-08-09T05:18:50.230Z,99.90
2022-08-09T05:21:30.046Z,99.90
2022-08-09T05:24:02.229Z,99.90
2022-08-09T05:26:45.656Z,99.90
2022-08-09T05:29:21.994Z,99.90
2022-08-09T05:31:57.046Z,99.90
2022-08-09T05:34:30.955Z,99.90
2022-08-09T05:37:02.388Z,99.90
2022-08-09T05:39:35.765Z,99.90
2022-08-09T05:42:05.996Z,99.90
2022-08-09T05:44:35.123Z,99.90
2022-08-09T05:47:04.892Z,99.90
2022-08-09T05:50:24.511Z,99.90
2022-08-09T05:52:22.220Z,99.90
2022-08-09T05:54:55.334Z,99.90
2022-08-09T05:57:25.168Z,99.90
2022-08-09T06:00:13.806Z,99.90
2022-08-09T06:02:42.361Z,99.90
2022-08-09T06:05:15.121Z,99.90
2022-08-09T06:07:44.325Z,99.90
2022-08-09T06:10:39.707Z,99.90
2022-08-09T06:13:12.000Z,99.90
2022-08-09T06:15:41.114Z,99.90
2022-08-09T06:18:10.099Z,99.90
2022-08-09T06:20:39.643Z,99.90
2022-08-09T06:23:07.686Z,99.90
2022-08-09T06:25:41.692Z,99.90
2022-08-09T06:28:11.337Z,99.90
2022-08-09T06:30:43.441Z,99.90
2022-08-09T06:33:30.423Z,99.90
2022-08-09T06:36:01.085Z,99.90
2022-08-09T06:38:36.381Z,99.90
2022-08-09T06:41:18.163Z,99.90
2022-08-09T06:43:47.758Z,99.90
2022-08-09T06:46:39.981Z,99.90
2022-08-09T06:49:04.262Z,99.90
2022-08-09T06:51:33.671Z,99.90
2022-08-09T06:54:09.320Z,99.90
2022-08-09T06:56:46.399Z,97.60
2022-08-09T07:00:55.637Z,92.80
2022-08-09T07:02:03.495Z,86.00
2022-08-09T07:04:32.727Z,76.30
2022-08-09T07:07:01.095Z,66.00
2022-08-09T07:09:55.597Z,57.10
2022-08-09T07:12:38.859Z,51.80
2022-08-09T07:16:34.834Z,46.90
2022-08-09T07:18:02.561Z,43.40
2022-08-09T07:20:31.611Z,40.60
2022-08-09T07:22:59.803Z,38.20
2022-08-09T07:25:28.121Z,36.40
2022-08-09T07:27:58.498Z,34.30
2022-08-09T07:30:33.233Z,32.60
2022-08-09T07:33:01.651Z,31.70
2022-08-09T07:35:53.504Z,30.80
2022-08-09T07:38:23.914Z,30.00
2022-08-09T07:41:12.700Z,29.30
2022-08-09T07:43:49.981Z,28.80
2022-08-09T07:46:27.712Z,28.20
2022-08-09T07:48:58.983Z,28.00
2022-08-09T07:52:05.785Z,27.60
2022-08-09T07:54:27.679Z,27.40
2022-08-09T07:56:56.428Z,27.10
2022-08-09T07:59:34.049Z,26.90
2022-08-09T08:02:19.947Z,26.60
2022-08-09T08:04:49.332Z,26.40
2022-08-09T08:08:06.193Z,25.90
2022-08-09T08:10:11.360Z,25.70
2022-08-09T08:12:43.770Z,25.90
2022-08-09T08:15:17.277Z,26.30
2022-08-09T08:17:53.436Z,26.90
2022-08-09T08:20:27.235Z,26.40
2022-08-09T08:23:03.428Z,26.30
2022-08-09T08:25:46.644Z,26.30
2022-08-09T08:28:18.029Z,26.10
2022-08-09T08:30:48.688Z,26.30
2022-08-09T08:33:22.922Z,27.00
2022-08-09T08:35:59.816Z,27.80
2022-08-09T08:38:29.126Z,28.20
2022-08-09T08:40:58.171Z,28.50
2022-08-09T08:43:27.659Z,28.90
2022-08-09T08:46:09.802Z,29.20
2022-08-09T08:48:53.580Z,29.80
2022-08-09T08:51:22.839Z,30.00
2022-08-09T08:54:04.301Z,30.00
2022-08-09T08:56:35.921Z,30.00
2022-08-09T08:59:07.686Z,29.80
2022-08-09T09:01:53.247Z,29.90
2022-08-09T09:04:29.853Z,30.00
2022-08-09T09:07:03.887Z,29.80
2022-08-09T09:09:57.919Z,29.30
2022-08-09T09:12:27.506Z,28.80
2022-08-09T09:15:00.175Z,28.00
2022-08-09T09:17:43.315Z,27.00
2022-08-09T09:20:18.139Z,26.10
2022-08-09T09:22:54.340Z,25.30
2022-08-09T09:26:04.536Z,24.70
2022-08-09T09:29:02.182Z,24.10
2022-08-09T09:32:14.911Z,23.80
2022-08-09T09:34:18.572Z,23.60
2022-08-09T09:36:53.069Z,23.40
2022-08-09T09:39:42.666Z,23.30
2022-08-09T09:42:24.686Z,23.10
2022-08-09T09:44:58.823Z,22.80
2022-08-09T09:47:28.442Z,22.70
2022-08-09T09:50:14.927Z,22.70
2022-08-09T09:52:54.632Z,23.20
2022-08-09T09:55:32.556Z,22.50
2022-08-09T09:58:17.435Z,22.50
2022-08-09T10:00:53.936Z,22.30
2022-08-09T10:03:57.239Z,22.30
2022-08-09T10:06:32.123Z,22.20
2022-08-09T10:09:11.600Z,22.20
2022-08-09T10:12:11.382Z,22.10
2022-08-09T10:14:47.965Z,22.20
2022-08-09T10:17:51.133Z,22.20
2022-08-09T10:20:27.632Z,22.00
2022-08-09T10:23:17.263Z,21.80
2022-08-09T10:26:06.765Z,21.90
2022-08-09T10:28:39.879Z,22.00
2022-08-09T10:32:27.571Z,22.00
2022-08-09T10:34:10.953Z,22.00
2022-08-09T10:36:50.385Z,21.70
2022-08-09T10:39:26.940Z,21.80
2022-08-09T10:41:57.026Z,22.50
2022-08-09T10:44:39.898Z,22.70
2022-08-09T10:48:14.396Z,23.00
2022-08-09T10:50:31.238Z,23.70
2022-08-09T10:53:23.043Z,23.60
2022-08-09T10:56:22.696Z,23.30
2022-08-09T10:58:55.449Z,22.90
2022-08-09T11:03:13.337Z,23.00
2022-08-09T11:04:32.901Z,22.70
2022-08-09T11:07:58.307Z,22.90
2022-08-09T11:10:59.756Z,23.00
2022-08-09T11:13:50.920Z,23.20
2022-08-09T11:16:36.029Z,23.30
2022-08-09T11:19:10.666Z,23.50
2022-08-09T11:22:05.017Z,23.30
2022-08-09T11:25:05.555Z,23.40
2022-08-09T11:28:03.972Z,23.70
2022-08-09T11:30:38.208Z,23.40
2022-08-09T11:33:15.517Z,23.00
2022-08-09T11:35:49.630Z,22.80
2022-08-09T11:38:22.462Z,22.70
2022-08-09T11:40:57.683Z,22.40
2022-08-09T11:43:41.065Z,22.20
2022-08-09T11:46:11.278Z,21.90
2022-08-09T11:48:50.955Z,22.10
2022-08-09T11:53:03.370Z,22.00
2022-08-09T11:54:28.830Z,21.90
2022-08-09T11:58:00.863Z,21.90
2022-08-09T12:00:28.355Z,22.90
2022-08-09T12:03:50.207Z,22.40
2022-08-09T12:05:52.172Z,22.10
2022-08-09T12:08:23.067Z,22.00
2022-08-09T12:10:55.933Z,21.90
2022-08-09T12:14:08.535Z,22.10
2022-08-09T12:16:37.286Z,22.10
2022-08-09T12:19:11.397Z,22.00
2022-08-09T12:21:48.578Z,22.00
2022-08-09T12:24:25.317Z,22.10
2022-08-09T12:29:15.304Z,22.10
2022-08-09T12:30:01.845Z,22.00
2022-08-09T12:32:45.623Z,22.20
2022-08-09T12:35:22.769Z,22.50
2022-08-09T12:37:52.192Z,22.50
2022-08-09T12:40:24.447Z,22.50
2022-08-09T12:42:54.105Z,22.20
2022-08-09T12:45:34.441Z,22.30
2022-08-09T12:48:20.453Z,22.20
2022-08-09T12:50:59.869Z,22.20
2022-08-09T12:53:38.862Z,22.30
2022-08-09T12:56:37.051Z,22.50
2022-08-09T12:59:08.936Z,22.60
2022-08-09T13:01:48.749Z,22.80
2022-08-09T13:04:37.249Z,22.90
2022-08-09T13:07:16.417Z,23.10
2022-08-09T13:09:55.367Z,23.20
2022-08-09T13:12:29.187Z,22.90
2022-08-09T13:15:07.137Z,23.00
2022-08-09T13:18:02.860Z,23.20
2022-08-09T13:20:37.133Z,22.90
2022-08-09T13:24:15.905Z,23.10
2022-08-09T13:26:10.115Z,23.30
2022-08-09T13:28:39.652Z,23.60
2022-08-09T13:32:14.185Z,23.70
2022-08-09T13:33:58.526Z,24.00
2022-08-09T13:36:42.404Z,24.10
2022-08-09T13:41:51.143Z,24.20
2022-08-09T13:42:03.540Z,24.30
2022-08-09T13:44:33.517Z,24.60
2022-08-09T13:47:26.887Z,24.80
2022-08-09T13:49:57.620Z,25.10
2022-08-09T13:52:29.908Z,25.50
2022-08-09T13:55:05.211Z,26.20
2022-08-09T13:57:42.955Z,26.90
2022-08-09T14:00:15.502Z,27.90
2022-08-09T14:03:02.857Z,28.40
2022-08-09T14:06:00.478Z,29.00
2022-08-09T14:08:23.179Z,29.50
2022-08-09T14:10:53.406Z,30.10
2022-08-09T14:14:14.896Z,30.70
2022-08-09T14:16:15.302Z,31.20
2022-08-09T14:18:49.615Z,31.50
2022-08-09T14:21:22.200Z,31.90
2022-08-09T14:23:55.620Z,32.30
2022-08-09T14:26:30.603Z,32.60
2022-08-09T14:29:02.976Z,33.00
2022-08-09T14:31:49.540Z,33.40
2022-08-09T14:34:31.243Z,33.70
2022-08-09T14:37:06.440Z,34.10
2022-08-09T14:39:46.575Z,34.20
2022-08-09T14:42:40.463Z,34.60
2022-08-09T14:46:40.385Z,35.20
2022-08-09T14:48:00.327Z,35.60
2022-08-09T14:50:32.599Z,35.70
2022-08-09T14:53:02.096Z,36.20
2022-08-09T14:55:32.289Z,36.80
2022-08-09T14:58:06.117Z,37.10
2022-08-09T15:00:36.651Z,37.40
2022-08-09T15:03:07.728Z,37.60
2022-08-09T15:05:38.408Z,38.10
2022-08-09T15:08:06.939Z,38.20
2022-08-09T15:10:39.031Z,38.40
2022-08-09T15:13:09.337Z,38.40
2022-08-09T15:15:39.466Z,38.50
2022-08-09T15:18:14.261Z,38.80
2022-08-09T15:21:56.529Z,38.80
2022-08-09T15:24:00.838Z,39.00
2022-08-09T15:26:31.231Z,39.30
2022-08-09T15:29:04.851Z,39.70
2022-08-09T15:31:40.667Z,40.10
2022-08-09T15:34:31.719Z,40.30
2022-08-09T15:37:01.048Z,40.90
2022-08-09T15:39:34.772Z,40.90
2022-08-09T15:42:18.957Z,41.30
2022-08-09T15:44:48.614Z,41.70
2022-08-09T15:47:22.482Z,42.00
2022-08-09T15:50:04.885Z,42.10
2022-08-09T15:52:35.341Z,42.10
2022-08-09T15:55:04.661Z,42.10
2022-08-09T15:57:35.053Z,42.10
2022-08-09T16:00:24.227Z,42.80
2022-08-09T16:02:56.288Z,42.50
2022-08-09T16:05:47.618Z,42.90
2022-08-09T16:08:30.362Z,43.00
2022-08-09T16:11:00.023Z,43.10
2022-08-09T16:14:04.835Z,43.90
2022-08-09T16:16:20.339Z,43.40
2022-08-09T16:18:56.506Z,43.90
2022-08-09T16:21:26.191Z,43.80
2022-08-09T16:23:58.588Z,43.90
2022-08-09T16:26:34.609Z,44.30
2022-08-09T16:29:11.698Z,44.50
2022-08-09T16:32:20.130Z,44.60
2022-08-09T16:34:53.535Z,45.20
2022-08-09T16:37:20.504Z,45.80
2022-08-09T16:40:11.375Z,45.80
2022-08-09T16:42:44.974Z,46.00
2022-08-09T16:45:17.468Z,45.80
2022-08-09T16:48:41.896Z,45.70
2022-08-09T16:50:38.654Z,45.90
2022-08-09T16:53:08.767Z,46.20
2022-08-09T16:55:59.951Z,46.20
2022-08-09T16:58:25.955Z,46.20
2022-08-09T17:00:55.062Z,46.20
2022-08-09T17:03:24.760Z,46.30
2022-08-09T17:06:06.587Z,46.60
2022-08-09T17:08:46.510Z,46.90
2022-08-09T17:11:40.937Z,47.00
2022-08-09T17:14:26.057Z,47.60
2022-08-09T17:16:59.878Z,48.00
2022-08-09T17:19:47.542Z,48.60
2022-08-09T17:22:23.737Z,48.40
2022-08-09T17:24:55.228Z,48.60
2022-08-09T17:27:24.291Z,48.80
2022-08-09T17:29:53.466Z,48.80
2022-08-09T17:32:26.706Z,49.10
2022-08-09T17:35:12.290Z,49.50
2022-08-09T17:38:02.133Z,49.90
2022-08-09T17:40:32.771Z,50.40
2022-08-09T17:43:10.866Z,50.80
2022-08-09T17:46:05.910Z,51.30
2022-08-09T17:48:35.258Z,51.90
2022-08-09T17:51:17.881Z,52.10
2022-08-09T17:53:52.896Z,52.50
2022-08-09T17:56:27.885Z,52.90
2022-08-09T17:59:03.012Z,53.00
2022-08-09T18:02:03.572Z,53.60
2022-08-09T18:04:20.594Z,54.20
2022-08-09T18:06:55.317Z,54.20
2022-08-09T18:09:25.199Z,55.20
2022-08-09T18:12:17.684Z,55.40
2022-08-09T18:14:53.785Z,55.90
2022-08-09T18:17:27.400Z,56.30
2022-08-09T18:20:55.889Z,56.60
2022-08-09T18:23:05.347Z,57.10
2022-08-09T18:25:53.279Z,57.60
2022-08-09T18:30:40.623Z,58.20
2022-08-09T18:31:12.088Z,59.20
2022-08-09T18:33:40.732Z,59.80
2022-08-09T18:36:14.468Z,59.60
2022-08-09T18:39:00.922Z,60.10
2022-08-09T18:41:34.999Z,60.50
2022-08-09T18:44:12.369Z,61.40
2022-08-09T18:46:50.226Z,62.00
2022-08-09T18:49:31.901Z,62.70
2022-08-09T18:52:00.607Z,63.90
2022-08-09T18:54:30.514Z,64.10
2022-08-09T18:57:05.907Z,64.90
2022-08-09T18:59:37.546Z,65.30
2022-08-09T19:02:17.871Z,66.20
2022-08-09T19:04:47.775Z,68.20
2022-08-09T19:07:28.970Z,70.80
2022-08-09T19:10:13.868Z,71.90
2022-08-09T19:12:52.792Z,73.50
2022-08-09T19:15:27.349Z,75.50
2022-08-09T19:17:58.287Z,77.90
2022-08-09T19:20:34.440Z,80.10
2022-08-09T19:23:07.749Z,81.30
2022-08-09T19:26:01.401Z,84.80
2022-08-09T19:28:28.860Z,85.90
2022-08-09T19:30:57.168Z,87.70
2022-08-09T19:33:25.310Z,87.40
2022-08-09T19:35:57.114Z,88.40
2022-08-09T19:38:27.341Z,89.10
2022-08-09T19:41:00.396Z,89.50
2022-08-09T19:44:01.616Z,91.00
2022-08-09T19:46:17.293Z,91.10
2022-08-09T19:50:07.709Z,92.00
2022-08-09T19:51:55.359Z,92.90
2022-08-09T19:54:25.247Z,93.80
2022-08-09T19:56:55.090Z,94.50
2022-08-09T19:59:58.414Z,94.70
2022-08-09T20:02:18.157Z,96.10
2022-08-09T20:05:02.453Z,97.00
2022-08-09T20:07:59.789Z,97.20
2022-08-09T20:10:34.938Z,97.40
2022-08-09T20:13:08.240Z,98.70
2022-08-09T20:16:34.846Z,98.90
2022-08-09T20:18:27.885Z,99.80
2022-08-09T20:20:57.496Z,99.90
2022-08-09T20:23:38.873Z,99.90
2022-08-09T20:26:09.924Z,99.90
2022-08-09T20:28:48.059Z,99.90
2022-08-09T20:31:18.862Z,99.90
2022-08-09T20:33:52.481Z,99.90
2022-08-09T20:36:27.327Z,99.90
2022-08-09T20:39:27.996Z,99.90
2022-08-09T20:41:44.109Z,99.90
2022-08-09T20:44:16.464Z,99.90
2022-08-09T20:46:54.795Z,99.90
2022-08-09T20:49:24.069Z,99.90
2022-08-09T20:51:53.225Z,99.90
2022-08-09T20:54:24.681Z,99.90
2022-08-09T20:56:53.595Z,99.90
2022-08-09T21:00:19.601Z,99.90
2022-08-09T21:02:26.904Z,99.90
2022-08-09T21:05:56.926Z,99.90
2022-08-09T21:07:44.872Z,99.90
2022-08-09T21:10:13.032Z,99.90
2022-08-09T21:15:34.679Z,99.90
2022-08-09T21:18:25.553Z,99.90
2022-08-09T21:20:54.101Z,99.90
2022-08-09T21:23:36.102Z,99.90
2022-08-09T21:26:11.388Z,99.90
2022-08-09T21:28:39.728Z,99.90
2022-08-09T21:31:49.120Z,99.90
2022-08-09T21:34:28.822Z,99.90
2022-08-09T21:39:55.826Z,99.90
2022-08-09T21:42:28.566Z,99.90
2022-08-09T21:44:57.369Z,99.90
2022-08-09T21:47:26.815Z,99.90
2022-08-09T21:49:58.059Z,99.90
2022-08-09T21:52:28.158Z,99.90
2022-08-09T21:55:04.150Z,99.90
2022-08-09T21:57:39.488Z,99.90
2022-08-09T22:00:26.005Z,99.90
2022-08-09T22:02:59.235Z,99.90
2022-08-09T22:05:35.791Z,99.90
2022-08-09T22:08:11.902Z,99.90
2022-08-09T22:11:04.884Z,99.90
2022-08-09T22:13:34.408Z,99.90
2022-08-09T22:16:04.422Z,99.90
2022-08-09T22:18:37.969Z,99.90
2022-08-09T22:21:09.381Z,99.90
2022-08-09T22:23:58.986Z,99.90
2022-08-09T22:26:35.193Z,99.90
2022-08-09T22:29:09.027Z,99.90
2022-08-09T22:31:50.287Z,99.90
2022-08-09T22:34:27.163Z,99.90
2022-08-09T22:36:55.746Z,99.90
2022-08-09T22:39:55.951Z,99.90
2022-08-09T22:42:21.070Z,99.90
2022-08-09T22:48:06.112Z,99.90
2022-08-09T22:48:14.953Z,99.90
2022-08-09T22:50:32.423Z,99.90
2022-08-09T22:53:03.764Z,99.90
2022-08-09T22:56:06.140Z,99.90
2022-08-09T22:58:32.599Z,99.90
2022-08-09T23:01:02.507Z,99.90
2022-08-09T23:04:05.923Z,99.90
2022-08-09T23:06:34.673Z,99.90
2022-08-09T23:09:04.976Z,99.90
2022-08-09T23:11:33.031Z,99.90
2022-08-09T23:14:02.957Z,99.90
2022-08-09T23:16:31.200Z,99.90
2022-08-09T23:18:59.487Z,99.90
2022-08-09T23:21:35.175Z,99.90
2022-08-09T23:24:06.992Z,99.90
2022-08-09T23:26:36.358Z,99.90
2022-08-09T23:29:05.660Z,99.90
2022-08-09T23:31:34.206Z,99.90
2022-08-09T23:34:03.909Z,99.90
2022-08-09T23:36:33.964Z,99.90
2022-08-09T23:39:02.638Z,99.90
2022-08-09T23:41:30.919Z,99.90
2022-08-09T23:44:00.262Z,99.90
2022-08-09T23:46:28.959Z,99.90
2022-08-09T23:48:57.016Z,99.90
2022-08-09T23:51:25.763Z,99.90
2022-08-09T23:54:02.357Z,99.90
2022-08-09T23:56:52.833Z,99.90
2022-08-09T23:59:20.777Z,99.90
